Airfield :
LOGIN :

Register | Disclaimer

   EN    FR    IT 

 










Legend :    VFR   Marginal VFR   IFR   Intensive IFR   Very Intensive IFR
Visi :
Ceiling :
>= 8 km
>= 3000ft
5 to 8 km
1000 to 3000 ft
1500m to 5 km
500 to 1000 ft
800 to 1500m
200 to 500 ft
< 800m
< 200 ft
Symbols :   Thunderstorms  Fog  Heavy snow  Heavy precipitations  Wind > 20 kt
SIGMETs :     Misc.  Thunderstorms  Icing  Turbulence  Mountain Waves  Volcanic Ashes







- Airport Elevation : 1115 ft
- IATA code : GRZ


LOWG - Graz

CURRENT METAR :
  • 211620Z 36009KT CAVOK 02/M04 Q1010 R17/19//95 NOSIG

EXPIRED METARs :
  • 211550Z 35011KT 9999 FEW070 03/M04 Q1010 R17/19//95 NOSIG
  • 211520Z 34007KT 9999 FEW070 05/M04 Q1009 R17/19//95 NOSIG
  • 211450Z 36010KT 9999 SCT070 04/M03 Q1009 R17/19//95 NOSIG
  • 211420Z 36011KT 9999 SCT070 05/M03 Q1008 R17/19//95 NOSIG
  • 211350Z VRB04KT 9999 SCT070 06/M02 Q1008 R17/19//95 TEMPO 35015KT

TAF TAF LOWG
Valid from the 21 at 12:00 until the 22 at 12:00 UTC


211115Z 2112/2212 15004KT 9999 SCT070 TX05/2113Z TNM02/2202Z
TEMPO 2112/2120 34010KT
PROB40
TEMPO 2113/2119 35020G30KT
BECMG 2203/2206 SCT060 BKN100
PROB30
TEMPO 2206/2210 6000 -SN FEW040 BKN060
No reported NOTAMs for that airfield.



MET'MAP, your aeronautical weather chart ! - Copyright ORBIFLY December 2007 - Disclaimer

ORBIFLY MET'MAP TEAM :

Programming & Development : Alexandra Zaïnal
Concept & Development : Baudouin d'Aumeries
Co-Development & Prog : Marc-Olivier Méhu
Technical & hardware support : Manuel Goepfert

Contact : metmap@orbifly.com




SOURCES & CREDITS :

   NOAA